Time;durP1;ratioP1;P1;durP2;ratioP2;P2;SDS_P1;SDS_P2;PMS_P1;PMS_P2;Temp;Humidity;BMP_temperature;BMP_pressure;BME280_temperature;BME280_humidity;BME280_pressure;Samples;Min_cycle;Max_cycle;Signal;HPM_P1;HPM_P2
2023/12/09 00:02:39;;;;;;;59.65;17.98;;;;;;;;;;4997336;28;20062;-67
2023/12/09 00:05:25;;;;;;;47.95;13.85;;;;;;;;;;4983502;28;20412;-67
2023/12/09 00:08:11;;;;;;;55.25;16.38;;;;;;;;;;4980732;28;20023;-67
2023/12/09 00:10:56;;;;;;;64.43;15.38;;;;;;;;;;4996207;28;20113;-68
2023/12/09 00:13:42;;;;;;;65.32;16.85;;;;;;;;;;4996556;28;20026;-68
2023/12/09 00:16:27;;;;;;;57.40;18.27;;;;;;;;;;4997655;28;20026;-68
2023/12/09 00:19:13;;;;;;;65.03;16.52;;;;;;;;;;4995610;28;20031;-68
2023/12/09 00:21:59;;;;;;;68.90;16.98;;;;;;;;;;4996973;28;20086;-68
2023/12/09 00:24:44;;;;;;;55.17;16.58;;;;;;;;;;4996726;28;20084;-68
2023/12/09 00:27:30;;;;;;;61.33;17.88;;;;;;;;;;4996991;28;20105;-68
2023/12/09 00:30:15;;;;;;;59.90;16.00;;;;;;;;;;4996659;28;20026;-67
2023/12/09 00:33:01;;;;;;;45.28;15.07;;;;;;;;;;4997181;28;20478;-68
2023/12/09 00:35:48;;;;;;;51.28;14.10;;;;;;;;;;4997077;28;20060;-68
2023/12/09 00:38:33;;;;;;;54.53;16.13;;;;;;;;;;4996645;28;20022;-68
2023/12/09 00:41:19;;;;;;;50.00;16.35;;;;;;;;;;4995661;28;20057;-68
2023/12/09 00:44:04;;;;;;;50.25;14.63;;;;;;;;;;4981318;28;20030;-68
2023/12/09 00:46:50;;;;;;;71.85;16.60;;;;;;;;;;4996492;28;20085;-68
2023/12/09 00:49:36;;;;;;;51.35;16.67;;;;;;;;;;4994901;28;20097;-68
2023/12/09 00:52:21;;;;;;;66.45;17.75;;;;;;;;;;4996429;28;20026;-68
2023/12/09 00:55:07;;;;;;;51.40;16.15;;;;;;;;;;4996205;28;20550;-68
2023/12/09 00:57:53;;;;;;;62.72;15.20;;;;;;;;;;4996755;28;20029;-67
2023/12/09 01:00:38;;;;;;;55.95;14.98;;;;;;;;;;4995376;28;20484;-68
2023/12/09 01:03:24;;;;;;;63.75;15.80;;;;;;;;;;4995948;28;20373;-68
2023/12/09 01:06:09;;;;;;;49.20;14.70;;;;;;;;;;4996539;28;20045;-68
2023/12/09 01:08:55;;;;;;;52.78;14.63;;;;;;;;;;4995753;28;20019;-67
2023/12/09 01:11:41;;;;;;;50.95;14.05;;;;;;;;;;4981666;28;20033;-67
2023/12/09 01:14:27;;;;;;;39.70;13.00;;;;;;;;;;4996326;28;20122;-68
2023/12/09 01:17:12;;;;;;;53.95;14.38;;;;;;;;;;4996255;28;20488;-68
2023/12/09 01:19:58;;;;;;;52.63;16.85;;;;;;;;;;4997083;28;20058;-68
2023/12/09 01:22:43;;;;;;;52.42;14.13;;;;;;;;;;4994709;28;20034;-68
2023/12/09 01:25:29;;;;;;;55.65;14.43;;;;;;;;;;4996799;28;20022;-68
2023/12/09 01:28:15;;;;;;;49.53;13.75;;;;;;;;;;4996111;28;20081;-67
2023/12/09 01:31:00;;;;;;;60.88;14.27;;;;;;;;;;4995299;28;20053;-68
2023/12/09 01:33:46;;;;;;;50.80;14.40;;;;;;;;;;4995173;28;20081;-68
2023/12/09 01:36:31;;;;;;;57.33;15.20;;;;;;;;;;4995930;28;20082;-68
2023/12/09 01:39:17;;;;;;;45.63;14.80;;;;;;;;;;4994975;28;20062;-68
2023/12/09 01:42:03;;;;;;;44.70;13.55;;;;;;;;;;4994740;28;20455;-68
2023/12/09 01:44:48;;;;;;;45.58;14.00;;;;;;;;;;4994147;28;20487;-68
2023/12/09 01:47:37;;;;;;;50.58;12.05;;;;;;;;;;4995412;28;20446;-68
2023/12/09 01:50:23;;;;;;;57.13;13.43;;;;;;;;;;4986853;28;20037;-67
2023/12/09 01:53:08;;;;;;;53.85;15.45;;;;;;;;;;4993530;28;20407;-68
2023/12/09 01:55:55;;;;;;;49.20;13.85;;;;;;;;;;4987450;28;20034;-68
2023/12/09 01:58:41;;;;;;;54.10;13.38;;;;;;;;;;4979760;28;20026;-67
2023/12/09 02:01:27;;;;;;;48.90;12.88;;;;;;;;;;4994989;28;20022;-68
2023/12/09 02:04:13;;;;;;;56.00;14.50;;;;;;;;;;4993091;28;20025;-68
2023/12/09 02:06:58;;;;;;;44.60;13.32;;;;;;;;;;4994263;28;20484;-68
2023/12/09 02:09:44;;;;;;;43.10;11.32;;;;;;;;;;4995613;28;20096;-68
2023/12/09 02:12:50;;;;;;;52.53;13.48;;;;;;;;;;4996193;28;20026;-68
2023/12/09 02:15:39;;;;;;;46.92;12.05;;;;;;;;;;4994688;28;20019;-68
2023/12/09 02:18:25;;;;;;;40.63;13.60;;;;;;;;;;4979997;28;20022;-68
2023/12/09 02:21:11;;;;;;;44.55;11.95;;;;;;;;;;4994401;28;20503;-68
2023/12/09 02:23:57;;;;;;;41.28;12.98;;;;;;;;;;4993732;28;20495;-68
2023/12/09 02:26:42;;;;;;;37.67;10.52;;;;;;;;;;4994280;28;20045;-67
2023/12/09 02:29:32;;;;;;;49.17;12.68;;;;;;;;;;4993184;28;20022;-67
2023/12/09 02:32:20;;;;;;;43.83;11.20;;;;;;;;;;4993910;28;20026;-68
2023/12/09 02:35:08;;;;;;;39.25;11.00;;;;;;;;;;4981016;28;20030;-67
2023/12/09 02:37:55;;;;;;;45.92;12.85;;;;;;;;;;4993274;28;20059;-67
2023/12/09 02:40:41;;;;;;;44.10;11.75;;;;;;;;;;4993840;28;20023;-67
2023/12/09 02:43:27;;;;;;;48.58;13.07;;;;;;;;;;4980375;28;20050;-68
2023/12/09 02:46:14;;;;;;;45.50;12.90;;;;;;;;;;4994243;28;20053;-67
2023/12/09 02:49:00;;;;;;;40.20;11.63;;;;;;;;;;4979271;28;20436;-67
2023/12/09 02:51:46;;;;;;;35.88;10.18;;;;;;;;;;4993696;28;20030;-68
2023/12/09 02:54:31;;;;;;;33.17;10.65;;;;;;;;;;4994795;28;20026;-67
2023/12/09 02:57:17;;;;;;;31.25;10.13;;;;;;;;;;4993925;28;20026;-67
2023/12/09 03:00:05;;;;;;;34.95;11.07;;;;;;;;;;4994041;28;20022;-67
2023/12/09 03:02:51;;;;;;;36.78;10.88;;;;;;;;;;4992885;28;20437;-68
2023/12/09 03:05:36;;;;;;;39.05;12.05;;;;;;;;;;4993911;28;20026;-67
2023/12/09 03:08:22;;;;;;;33.60;11.88;;;;;;;;;;4993161;28;20085;-67
2023/12/09 03:11:08;;;;;;;28.85;9.63;;;;;;;;;;4994093;28;20116;-67
2023/12/09 03:13:53;;;;;;;31.55;9.95;;;;;;;;;;4993350;28;20026;-68
2023/12/09 03:16:39;;;;;;;29.58;9.35;;;;;;;;;;4993075;28;20085;-67
2023/12/09 03:19:24;;;;;;;40.40;11.07;;;;;;;;;;4992506;28;20109;-68
2023/12/09 03:22:10;;;;;;;30.15;9.95;;;;;;;;;;4993727;28;20030;-67
2023/12/09 03:24:56;;;;;;;41.85;11.77;;;;;;;;;;4993341;28;20112;-67
2023/12/09 03:27:41;;;;;;;29.45;11.02;;;;;;;;;;4993666;28;20085;-67
2023/12/09 03:30:27;;;;;;;41.78;11.38;;;;;;;;;;4992932;28;20403;-67
2023/12/09 03:33:13;;;;;;;43.92;10.90;;;;;;;;;;4993215;28;20041;-67
2023/12/09 03:35:58;;;;;;;33.67;10.88;;;;;;;;;;4981326;28;20544;-68
2023/12/09 03:38:44;;;;;;;44.70;11.95;;;;;;;;;;4978381;28;20045;-67
2023/12/09 03:41:29;;;;;;;41.63;13.45;;;;;;;;;;4993151;28;20022;-67
2023/12/09 03:44:15;;;;;;;40.47;10.32;;;;;;;;;;4985369;28;20026;-67
2023/12/09 03:47:01;;;;;;;35.17;13.27;;;;;;;;;;4973456;28;20476;-67
2023/12/09 03:49:46;;;;;;;38.55;11.32;;;;;;;;;;4972754;28;20042;-67
2023/12/09 03:52:32;;;;;;;41.42;12.77;;;;;;;;;;4972701;28;20034;-67
2023/12/09 03:55:18;;;;;;;41.75;11.68;;;;;;;;;;4973765;28;20109;-67
2023/12/09 03:58:05;;;;;;;50.05;12.27;;;;;;;;;;4972420;28;20485;-67
2023/12/09 04:00:51;;;;;;;41.88;11.07;;;;;;;;;;4959977;28;20037;-68
2023/12/09 04:03:36;;;;;;;41.75;11.43;;;;;;;;;;4974419;28;20371;-67
2023/12/09 04:06:22;;;;;;;48.10;12.40;;;;;;;;;;4973028;28;20420;-67
2023/12/09 04:09:11;;;;;;;42.60;12.15;;;;;;;;;;4973490;28;20034;-67
2023/12/09 04:11:56;;;;;;;36.40;13.13;;;;;;;;;;4974113;28;20074;-67
2023/12/09 04:14:42;;;;;;;49.13;12.75;;;;;;;;;;4975489;28;20022;-67
2023/12/09 04:17:27;;;;;;;38.58;12.82;;;;;;;;;;4976638;28;20058;-67
2023/12/09 04:20:13;;;;;;;43.60;11.05;;;;;;;;;;4976128;28;20022;-68
2023/12/09 04:22:59;;;;;;;31.50;10.05;;;;;;;;;;4977056;28;20480;-67
2023/12/09 04:25:44;;;;;;;32.00;10.13;;;;;;;;;;4977374;28;20026;-67
2023/12/09 04:28:30;;;;;;;33.17;9.57;;;;;;;;;;4976973;28;20030;-67
2023/12/09 04:31:16;;;;;;;52.45;12.85;;;;;;;;;;4976633;28;20526;-67
2023/12/09 04:34:02;;;;;;;44.20;11.45;;;;;;;;;;4976850;28;20484;-67
2023/12/09 04:36:48;;;;;;;35.22;10.57;;;;;;;;;;4976197;28;20050;-67
2023/12/09 04:39:33;;;;;;;31.17;11.27;;;;;;;;;;4976168;28;20081;-67
2023/12/09 04:42:19;;;;;;;42.53;11.48;;;;;;;;;;4976923;28;20432;-68
2023/12/09 04:45:06;;;;;;;29.02;9.73;;;;;;;;;;4976417;28;20033;-67
2023/12/09 04:47:51;;;;;;;45.85;11.93;;;;;;;;;;4975851;28;20546;-67
2023/12/09 04:50:37;;;;;;;37.38;10.35;;;;;;;;;;4976082;28;20042;-67
2023/12/09 04:53:23;;;;;;;31.30;9.98;;;;;;;;;;4976060;28;20377;-68
2023/12/09 04:56:09;;;;;;;36.75;11.10;;;;;;;;;;4975226;28;20031;-67
2023/12/09 04:58:54;;;;;;;51.83;11.43;;;;;;;;;;4976879;28;20110;-68
2023/12/09 05:01:41;;;;;;;44.00;13.00;;;;;;;;;;4976343;28;20023;-68
2023/12/09 05:04:27;;;;;;;43.53;12.20;;;;;;;;;;4975736;28;20023;-67
2023/12/09 05:07:12;;;;;;;46.38;11.77;;;;;;;;;;4976682;28;20065;-67
2023/12/09 05:09:58;;;;;;;42.67;12.40;;;;;;;;;;4976048;28;20109;-68
2023/12/09 05:12:44;;;;;;;37.40;12.75;;;;;;;;;;4975630;28;20068;-68
2023/12/09 05:15:29;;;;;;;36.17;12.15;;;;;;;;;;4975093;28;20128;-68
2023/12/09 05:18:15;;;;;;;50.35;12.68;;;;;;;;;;4976750;28;20026;-67
2023/12/09 05:21:01;;;;;;;43.75;12.98;;;;;;;;;;4979501;28;20026;-68
2023/12/09 05:23:46;;;;;;;45.42;11.50;;;;;;;;;;4982017;28;20026;-68
2023/12/09 05:26:33;;;;;;;35.45;10.82;;;;;;;;;;4993839;28;20026;-68
2023/12/09 05:29:18;;;;;;;34.35;11.75;;;;;;;;;;4993903;28;20550;-68
2023/12/09 05:32:05;;;;;;;51.53;13.23;;;;;;;;;;4995171;28;20038;-68
2023/12/09 05:34:52;;;;;;;59.15;12.93;;;;;;;;;;4995037;28;20442;-68
2023/12/09 05:37:38;;;;;;;41.22;13.05;;;;;;;;;;4992316;28;20109;-68
2023/12/09 05:40:24;;;;;;;49.13;14.07;;;;;;;;;;4994617;28;20388;-68
2023/12/09 05:43:09;;;;;;;46.60;11.95;;;;;;;;;;4996502;28;20026;-68
2023/12/09 05:45:55;;;;;;;49.33;13.30;;;;;;;;;;4996078;28;20029;-68
2023/12/09 05:48:40;;;;;;;49.70;13.25;;;;;;;;;;4995344;28;20124;-69
2023/12/09 05:51:26;;;;;;;74.40;14.15;;;;;;;;;;4991553;28;20034;-68
2023/12/09 05:54:12;;;;;;;41.90;11.63;;;;;;;;;;4995846;28;20057;-68
2023/12/09 05:56:57;;;;;;;55.15;12.50;;;;;;;;;;4994570;28;20443;-68
2023/12/09 05:59:43;;;;;;;48.08;11.90;;;;;;;;;;4995366;28;20030;-68
2023/12/09 06:02:28;;;;;;;46.80;12.30;;;;;;;;;;4993185;28;20026;-68
2023/12/09 06:05:14;;;;;;;44.55;13.90;;;;;;;;;;4994737;28;20034;-68
2023/12/09 06:08:00;;;;;;;46.42;13.10;;;;;;;;;;4994432;28;20504;-68
2023/12/09 06:10:45;;;;;;;47.25;13.93;;;;;;;;;;4994717;28;20058;-68
2023/12/09 06:13:31;;;;;;;59.67;14.75;;;;;;;;;;4991762;28;20566;-68
2023/12/09 06:16:18;;;;;;;49.15;11.73;;;;;;;;;;4992981;28;20026;-68
2023/12/09 06:19:03;;;;;;;53.58;14.27;;;;;;;;;;4980090;28;20069;-68
2023/12/09 06:21:49;;;;;;;55.50;12.57;;;;;;;;;;4992995;28;20138;-68
2023/12/09 06:24:35;;;;;;;55.33;14.55;;;;;;;;;;4994103;28;20026;-68
2023/12/09 06:27:20;;;;;;;59.78;17.85;;;;;;;;;;4993991;28;20084;-68
2023/12/09 06:30:08;;;;;;;47.75;14.18;;;;;;;;;;4993536;28;20403;-68
2023/12/09 06:32:54;;;;;;;48.10;14.20;;;;;;;;;;4994035;28;20034;-68
2023/12/09 06:35:39;;;;;;;53.47;13.52;;;;;;;;;;4993375;28;20027;-68
2023/12/09 06:38:25;;;;;;;67.28;14.65;;;;;;;;;;4993415;28;20507;-68
2023/12/09 06:41:11;;;;;;;45.30;12.38;;;;;;;;;;4993665;28;20026;-68
2023/12/09 06:43:57;;;;;;;48.15;13.73;;;;;;;;;;4994011;28;20033;-68
2023/12/09 06:46:42;;;;;;;55.95;15.75;;;;;;;;;;4992829;28;20523;-68
2023/12/09 06:49:28;;;;;;;49.47;14.80;;;;;;;;;;4993329;28;20045;-68
2023/12/09 06:52:13;;;;;;;49.97;14.00;;;;;;;;;;4994046;28;20023;-68
2023/12/09 06:54:59;;;;;;;65.60;15.93;;;;;;;;;;5110416;23;20084;-67
2023/12/09 06:57:45;;;;;;;70.82;15.82;;;;;;;;;;5031558;28;20491;-67
2023/12/09 07:00:30;;;;;;;44.20;14.65;;;;;;;;;;5034009;28;20025;-67
2023/12/09 07:03:16;;;;;;;42.08;13.40;;;;;;;;;;5032543;28;20502;-67
2023/12/09 07:06:03;;;;;;;80.00;17.02;;;;;;;;;;5031025;28;20463;-67
2023/12/09 07:08:49;;;;;;;58.30;15.20;;;;;;;;;;5032351;28;20022;-67
2023/12/09 07:11:35;;;;;;;80.70;16.98;;;;;;;;;;5034044;28;20060;-67
2023/12/09 07:14:20;;;;;;;53.47;16.73;;;;;;;;;;5027471;28;20030;-67
2023/12/09 07:17:06;;;;;;;47.25;15.02;;;;;;;;;;4990733;28;20022;-67
2023/12/09 07:19:52;;;;;;;63.47;14.73;;;;;;;;;;4993955;28;20018;-67
2023/12/09 07:22:38;;;;;;;60.92;15.65;;;;;;;;;;4994426;28;20492;-67
2023/12/09 07:25:24;;;;;;;56.97;16.40;;;;;;;;;;5000090;28;20030;-67
2023/12/09 07:28:09;;;;;;;71.80;17.70;;;;;;;;;;5033455;28;20457;-67
2023/12/09 07:30:55;;;;;;;70.50;15.32;;;;;;;;;;5032657;28;20025;-67
2023/12/09 07:33:41;;;;;;;83.00;17.48;;;;;;;;;;5032444;28;20068;-67
2023/12/09 07:36:26;;;;;;;44.05;12.88;;;;;;;;;;5031275;28;20028;-67
2023/12/09 07:39:12;;;;;;;55.30;16.15;;;;;;;;;;5031259;28;20479;-67
2023/12/09 07:41:58;;;;;;;62.17;14.30;;;;;;;;;;5027672;28;20033;-67
2023/12/09 07:44:43;;;;;;;66.40;16.92;;;;;;;;;;5011970;28;20030;-67
2023/12/09 07:47:29;;;;;;;46.28;14.25;;;;;;;;;;5022892;28;20017;-67
2023/12/09 07:50:15;;;;;;;51.90;15.75;;;;;;;;;;5025828;28;20041;-67
2023/12/09 07:53:02;;;;;;;106.13;19.65;;;;;;;;;;5031513;28;20080;-67
2023/12/09 07:55:47;;;;;;;63.35;16.27;;;;;;;;;;5008563;28;20022;-67
2023/12/09 07:58:33;;;;;;;57.05;15.27;;;;;;;;;;5016913;28;20029;-67
2023/12/09 08:01:19;;;;;;;71.13;17.35;;;;;;;;;;5016623;28;20543;-67
2023/12/09 08:04:05;;;;;;;81.00;17.92;;;;;;;;;;5016544;28;20033;-67
2023/12/09 08:06:52;;;;;;;107.57;21.30;;;;;;;;;;5016196;28;20060;-67
2023/12/09 08:09:38;;;;;;;82.97;17.77;;;;;;;;;;5015956;28;20048;-68
2023/12/09 08:12:23;;;;;;;58.78;16.85;;;;;;;;;;5016130;28;20025;-67
2023/12/09 08:15:09;;;;;;;54.75;16.92;;;;;;;;;;5016176;28;20022;-67
2023/12/09 08:17:55;;;;;;;79.80;18.60;;;;;;;;;;5016876;28;20219;-68
2023/12/09 08:20:40;;;;;;;66.97;18.02;;;;;;;;;;5016653;28;20022;-68
2023/12/09 08:23:29;;;;;;;63.47;16.17;;;;;;;;;;5016291;28;20073;-68
2023/12/09 08:26:17;;;;;;;75.68;19.85;;;;;;;;;;5000870;28;20025;-68
2023/12/09 08:29:04;;;;;;;78.72;17.42;;;;;;;;;;5017401;28;20026;-68
2023/12/09 08:31:50;;;;;;;109.82;21.48;;;;;;;;;;5001296;28;20118;-68
2023/12/09 08:34:35;;;;;;;88.47;18.80;;;;;;;;;;5015780;28;20026;-68
2023/12/09 08:37:25;;;;;;;84.00;17.45;;;;;;;;;;5016139;28;20380;-68
2023/12/09 08:40:12;;;;;;;104.63;18.90;;;;;;;;;;5015033;28;20029;-68
2023/12/09 08:42:57;;;;;;;89.25;18.77;;;;;;;;;;5001758;28;20026;-68
2023/12/09 08:45:43;;;;;;;54.33;15.95;;;;;;;;;;5016469;28;20030;-68
2023/12/09 08:48:28;;;;;;;81.35;19.02;;;;;;;;;;5014885;28;20022;-67
2023/12/09 08:51:14;;;;;;;69.70;18.60;;;;;;;;;;5029375;28;20028;-68
2023/12/09 08:54:00;;;;;;;93.72;19.25;;;;;;;;;;5034330;28;20037;-68
2023/12/09 08:56:46;;;;;;;61.92;15.75;;;;;;;;;;5035397;28;20036;-68
2023/12/09 08:59:31;;;;;;;109.93;20.35;;;;;;;;;;5035636;28;20029;-68
2023/12/09 09:02:17;;;;;;;62.38;16.48;;;;;;;;;;5032502;28;20028;-68
2023/12/09 09:05:03;;;;;;;60.03;14.65;;;;;;;;;;5029390;28;20026;-68
2023/12/09 09:07:48;;;;;;;125.68;20.73;;;;;;;;;;5014781;28;20105;-68
2023/12/09 09:10:34;;;;;;;87.45;19.25;;;;;;;;;;5014362;28;20072;-68
2023/12/09 09:13:20;;;;;;;129.25;22.48;;;;;;;;;;5014868;28;20037;-68
2023/12/09 09:16:05;;;;;;;133.65;21.38;;;;;;;;;;5008473;28;20575;-68
2023/12/09 09:18:51;;;;;;;86.20;18.80;;;;;;;;;;5014593;28;20025;-68
2023/12/09 09:21:37;;;;;;;76.78;19.45;;;;;;;;;;5015686;28;20029;-68
2023/12/09 09:24:22;;;;;;;88.90;19.27;;;;;;;;;;5014798;28;20029;-68
2023/12/09 09:27:08;;;;;;;62.75;17.50;;;;;;;;;;5031618;28;20025;-68
2023/12/09 09:29:54;;;;;;;64.55;17.30;;;;;;;;;;5032818;28;20033;-67
2023/12/09 09:32:40;;;;;;;87.00;18.45;;;;;;;;;;5034570;28;20029;-67
2023/12/09 09:35:26;;;;;;;109.05;21.35;;;;;;;;;;5034712;28;20151;-68
2023/12/09 09:38:11;;;;;;;91.35;19.40;;;;;;;;;;5034404;28;20445;-68
2023/12/09 09:40:57;;;;;;;62.75;17.90;;;;;;;;;;5034164;28;20017;-68
2023/12/09 09:43:47;;;;;;;66.57;17.00;;;;;;;;;;5034773;28;20477;-68
2023/12/09 09:46:34;;;;;;;77.88;17.08;;;;;;;;;;5019895;28;20025;-67
2023/12/09 09:49:19;;;;;;;80.93;18.33;;;;;;;;;;5020512;28;20022;-67
2023/12/09 09:52:09;;;;;;;78.05;16.30;;;;;;;;;;5034103;28;20399;-68
2023/12/09 09:54:55;;;;;;;64.75;15.85;;;;;;;;;;5020886;28;20106;-68
2023/12/09 09:57:42;;;;;;;80.97;17.25;;;;;;;;;;5014069;28;20369;-67
2023/12/09 10:00:28;;;;;;;75.00;17.90;;;;;;;;;;4999266;28;20530;-68
2023/12/09 10:03:14;;;;;;;69.22;16.95;;;;;;;;;;5014822;28;20061;-67
2023/12/09 10:06:00;;;;;;;55.95;18.65;;;;;;;;;;5014463;28;20108;-67
2023/12/09 10:08:46;;;;;;;89.38;18.13;;;;;;;;;;5027020;28;20450;-67
2023/12/09 10:11:32;;;;;;;76.63;18.40;;;;;;;;;;5020570;28;20026;-67
2023/12/09 10:14:18;;;;;;;99.20;19.30;;;;;;;;;;5024412;28;20452;-68
2023/12/09 10:17:03;;;;;;;77.20;18.45;;;;;;;;;;5034312;28;20018;-69
2023/12/09 10:19:49;;;;;;;70.80;16.33;;;;;;;;;;5019649;28;20073;-69
2023/12/09 10:22:35;;;;;;;59.10;17.23;;;;;;;;;;5006823;28;20025;-68
2023/12/09 10:25:24;;;;;;;62.85;17.20;;;;;;;;;;5013163;28;20029;-69
2023/12/09 10:28:09;;;;;;;67.20;17.67;;;;;;;;;;5005786;28;20085;-69
2023/12/09 10:30:55;;;;;;;55.38;16.65;;;;;;;;;;4994492;28;20033;-69
2023/12/09 10:33:42;;;;;;;57.38;17.15;;;;;;;;;;4979956;28;20030;-68
2023/12/09 10:36:31;;;;;;;57.42;20.00;;;;;;;;;;4995438;28;20475;-69
2023/12/09 10:39:19;;;;;;;57.22;16.27;;;;;;;;;;4994542;28;20498;-68
2023/12/09 10:42:05;;;;;;;64.78;18.25;;;;;;;;;;4994151;28;20030;-67
2023/12/09 10:44:50;;;;;;;59.08;18.38;;;;;;;;;;4993659;28;20117;-69
2023/12/09 10:47:36;;;;;;;55.92;16.35;;;;;;;;;;4994176;28;20014;-68
2023/12/09 10:50:22;;;;;;;58.13;16.55;;;;;;;;;;5012986;28;20030;-69
2023/12/09 10:53:08;;;;;;;65.38;17.30;;;;;;;;;;5013941;28;20498;-68
2023/12/09 10:55:53;;;;;;;50.25;16.90;;;;;;;;;;5012840;28;20036;-68
2023/12/09 10:58:40;;;;;;;60.15;17.27;;;;;;;;;;4998838;28;20033;-68
2023/12/09 11:01:27;;;;;;;59.67;16.92;;;;;;;;;;5007973;28;20487;-67
2023/12/09 11:04:13;;;;;;;61.45;18.52;;;;;;;;;;4994148;28;20031;-67
2023/12/09 11:07:03;;;;;;;60.97;16.10;;;;;;;;;;4979088;28;20458;-67
2023/12/09 11:09:49;;;;;;;61.30;17.75;;;;;;;;;;4994252;28;20439;-67
2023/12/09 11:12:35;;;;;;;57.28;15.75;;;;;;;;;;4993783;28;20026;-67
2023/12/09 11:15:28;;;;;;;58.85;18.77;;;;;;;;;;4993605;28;20402;-67
2023/12/09 11:18:17;;;;;;;63.45;18.75;;;;;;;;;;4993148;28;20554;-67
2023/12/09 11:21:03;;;;;;;73.65;16.98;;;;;;;;;;5005397;28;20096;-67
2023/12/09 11:23:53;;;;;;;64.03;17.98;;;;;;;;;;5011796;28;20030;-67
2023/12/09 11:26:41;;;;;;;56.25;17.65;;;;;;;;;;4997988;28;20018;-67
2023/12/09 11:29:26;;;;;;;51.83;16.60;;;;;;;;;;4997953;28;20029;-67
2023/12/09 11:32:12;;;;;;;58.17;17.38;;;;;;;;;;5013632;28;20018;-67
2023/12/09 11:34:58;;;;;;;56.47;17.33;;;;;;;;;;5012496;28;20030;-68
2023/12/09 11:37:44;;;;;;;53.83;17.27;;;;;;;;;;4999043;28;20034;-67
2023/12/09 11:40:30;;;;;;;54.67;17.95;;;;;;;;;;4998199;28;20086;-67
2023/12/09 11:43:16;;;;;;;52.97;18.17;;;;;;;;;;5012269;28;20026;-67
2023/12/09 11:46:02;;;;;;;50.30;16.25;;;;;;;;;;4998662;28;20041;-67
2023/12/09 11:48:50;;;;;;;62.38;17.67;;;;;;;;;;5013023;28;20025;-67
2023/12/09 11:51:37;;;;;;;53.40;17.20;;;;;;;;;;5013294;28;20026;-67
2023/12/09 11:54:22;;;;;;;54.53;15.70;;;;;;;;;;5013094;28;20109;-68
2023/12/09 11:57:08;;;;;;;59.03;16.38;;;;;;;;;;5013508;28;20025;-67
2023/12/09 11:59:54;;;;;;;54.50;16.30;;;;;;;;;;5013643;28;20056;-67
2023/12/09 12:02:42;;;;;;;50.75;16.83;;;;;;;;;;4999731;28;20021;-67
2023/12/09 12:05:28;;;;;;;56.63;15.98;;;;;;;;;;4984455;28;20112;-67
2023/12/09 12:08:16;;;;;;;52.88;17.23;;;;;;;;;;5012204;28;20084;-68
2023/12/09 12:11:03;;;;;;;46.30;14.63;;;;;;;;;;4998886;28;20026;-68
2023/12/09 12:13:49;;;;;;;44.42;14.55;;;;;;;;;;5011906;28;20041;-67
2023/12/09 12:16:35;;;;;;;47.63;16.15;;;;;;;;;;4998220;28;20037;-67
2023/12/09 12:19:22;;;;;;;50.33;16.83;;;;;;;;;;5013507;28;20029;-67
2023/12/09 12:22:07;;;;;;;53.35;16.08;;;;;;;;;;4998414;28;20026;-67
2023/12/09 12:24:53;;;;;;;62.95;18.58;;;;;;;;;;5012781;28;20113;-67
2023/12/09 12:27:44;;;;;;;48.30;16.58;;;;;;;;;;5012561;28;20586;-67
2023/12/09 12:30:30;;;;;;;61.85;16.35;;;;;;;;;;5012978;28;20029;-67
2023/12/09 12:33:16;;;;;;;65.05;18.70;;;;;;;;;;5012886;28;20470;-67
2023/12/09 12:36:02;;;;;;;55.92;17.45;;;;;;;;;;5013970;28;20022;-68
2023/12/09 12:38:49;;;;;;;55.65;14.15;;;;;;;;;;5015872;28;20030;-67
2023/12/09 12:41:35;;;;;;;46.80;16.27;;;;;;;;;;5016417;28;20391;-68
2023/12/09 12:44:21;;;;;;;67.80;19.08;;;;;;;;;;5016620;28;20033;-68
2023/12/09 12:47:07;;;;;;;59.97;17.60;;;;;;;;;;5015558;28;20026;-68
2023/12/09 12:49:52;;;;;;;64.47;17.42;;;;;;;;;;5015968;28;20014;-67
2023/12/09 12:52:39;;;;;;;55.55;17.15;;;;;;;;;;5015755;28;20044;-67
2023/12/09 12:55:24;;;;;;;48.17;16.65;;;;;;;;;;5098859;23;20056;-68
2023/12/09 12:58:10;;;;;;;47.35;15.73;;;;;;;;;;5035682;28;20021;-68
2023/12/09 13:00:56;;;;;;;45.38;14.85;;;;;;;;;;5034839;28;20021;-68
2023/12/09 13:03:43;;;;;;;42.65;15.32;;;;;;;;;;5034781;28;20095;-68
2023/12/09 13:06:28;;;;;;;45.17;15.32;;;;;;;;;;5035721;28;20502;-68
2023/12/09 13:09:14;;;;;;;43.05;16.20;;;;;;;;;;5035473;28;20032;-68
2023/12/09 13:12:00;;;;;;;33.10;12.30;;;;;;;;;;5034395;28;20022;-68
2023/12/09 13:14:45;;;;;;;41.15;14.25;;;;;;;;;;5034422;28;20053;-68
2023/12/09 13:17:31;;;;;;;43.75;14.57;;;;;;;;;;5035339;28;20052;-68
2023/12/09 13:20:17;;;;;;;44.75;14.43;;;;;;;;;;5033781;28;20029;-68
2023/12/09 13:23:03;;;;;;;42.78;15.35;;;;;;;;;;5034688;28;20091;-68
2023/12/09 13:25:48;;;;;;;42.40;13.70;;;;;;;;;;5019877;28;20037;-68
2023/12/09 13:28:34;;;;;;;39.53;14.90;;;;;;;;;;5035028;28;20049;-68
2023/12/09 13:31:20;;;;;;;41.42;14.35;;;;;;;;;;5034799;28;20498;-68
2023/12/09 13:34:05;;;;;;;44.33;15.68;;;;;;;;;;5032853;28;20025;-68
2023/12/09 13:36:51;;;;;;;50.95;14.20;;;;;;;;;;5034163;28;20548;-68
2023/12/09 13:39:37;;;;;;;52.85;15.13;;;;;;;;;;5035182;28;20033;-68
2023/12/09 13:42:22;;;;;;;42.70;11.93;;;;;;;;;;5020136;28;20548;-69
2023/12/09 13:45:09;;;;;;;44.92;14.77;;;;;;;;;;5032896;28;20067;-68
2023/12/09 13:47:54;;;;;;;52.20;15.50;;;;;;;;;;5032958;28;20076;-68
2023/12/09 13:50:40;;;;;;;44.08;14.95;;;;;;;;;;5033101;28;20080;-68
2023/12/09 13:53:26;;;;;;;45.08;13.40;;;;;;;;;;5034313;28;20483;-68
2023/12/09 13:56:12;;;;;;;43.95;12.82;;;;;;;;;;5033477;28;20091;-68
2023/12/09 13:58:57;;;;;;;36.78;13.43;;;;;;;;;;5032674;28;20483;-68
2023/12/09 14:01:43;;;;;;;42.10;13.50;;;;;;;;;;5019816;28;20430;-68
2023/12/09 14:04:29;;;;;;;51.10;15.75;;;;;;;;;;5034405;28;20099;-68
2023/12/09 14:07:15;;;;;;;51.28;14.32;;;;;;;;;;5033756;28;20033;-68
2023/12/09 14:10:01;;;;;;;48.28;13.63;;;;;;;;;;5019168;28;20053;-68
2023/12/09 14:12:47;;;;;;;38.42;13.82;;;;;;;;;;5019223;28;20025;-68
2023/12/09 14:15:33;;;;;;;33.17;11.35;;;;;;;;;;5034112;28;20025;-68
2023/12/09 14:18:18;;;;;;;36.97;12.02;;;;;;;;;;5032132;28;20021;-68
2023/12/09 14:21:07;;;;;;;37.92;12.75;;;;;;;;;;5019301;28;20022;-68
2023/12/09 14:23:53;;;;;;;31.95;11.45;;;;;;;;;;5018583;28;20029;-68
2023/12/09 14:26:38;;;;;;;41.22;13.13;;;;;;;;;;5032975;28;20022;-68
2023/12/09 14:29:24;;;;;;;39.63;14.07;;;;;;;;;;5020403;28;20021;-68
2023/12/09 14:32:10;;;;;;;36.38;11.75;;;;;;;;;;5033184;28;20159;-68
2023/12/09 14:34:56;;;;;;;46.53;13.68;;;;;;;;;;5027111;28;20034;-68
2023/12/09 14:37:42;;;;;;;38.95;12.32;;;;;;;;;;5009579;28;20068;-68
2023/12/09 14:40:28;;;;;;;33.10;12.52;;;;;;;;;;5014539;28;20026;-68
2023/12/09 14:43:14;;;;;;;27.00;11.27;;;;;;;;;;5031355;28;20450;-68
2023/12/09 14:45:59;;;;;;;32.33;11.32;;;;;;;;;;5018842;28;20036;-68
2023/12/09 14:48:45;;;;;;;37.13;11.88;;;;;;;;;;5013553;28;20017;-68
2023/12/09 14:51:31;;;;;;;34.63;12.77;;;;;;;;;;4990845;28;20120;-68
2023/12/09 14:54:17;;;;;;;36.08;12.63;;;;;;;;;;5014257;28;20029;-68
2023/12/09 14:57:03;;;;;;;42.00;11.60;;;;;;;;;;4999837;28;20506;-68
2023/12/09 14:59:48;;;;;;;33.63;11.65;;;;;;;;;;4999750;28;20395;-69
2023/12/09 15:02:35;;;;;;;39.88;12.75;;;;;;;;;;5005642;28;20509;-68
2023/12/09 15:05:20;;;;;;;39.92;11.90;;;;;;;;;;5016658;28;20029;-68
2023/12/09 15:08:07;;;;;;;34.90;12.77;;;;;;;;;;5002363;28;20030;-68
2023/12/09 15:10:53;;;;;;;37.80;12.23;;;;;;;;;;4998167;28;20057;-68
2023/12/09 15:13:39;;;;;;;39.15;13.38;;;;;;;;;;5013327;28;20088;-68
2023/12/09 15:16:24;;;;;;;43.60;14.68;;;;;;;;;;4998615;28;20029;-68
2023/12/09 15:19:10;;;;;;;41.40;15.00;;;;;;;;;;5016235;28;20108;-68
2023/12/09 15:21:56;;;;;;;50.08;15.82;;;;;;;;;;5017742;28;20025;-68
2023/12/09 15:24:42;;;;;;;46.97;15.80;;;;;;;;;;5032260;28;20079;-68
2023/12/09 15:27:30;;;;;;;49.55;15.90;;;;;;;;;;5033030;28;20616;-69
2023/12/09 15:30:18;;;;;;;47.75;15.15;;;;;;;;;;5032775;28;20088;-69
2023/12/09 15:33:04;;;;;;;53.80;15.38;;;;;;;;;;5018339;28;20018;-70
2023/12/09 15:35:50;;;;;;;49.20;16.27;;;;;;;;;;5031496;28;20108;-70
2023/12/09 15:38:35;;;;;;;40.10;13.75;;;;;;;;;;5013970;28;20022;-69
2023/12/09 15:41:21;;;;;;;50.08;16.42;;;;;;;;;;5013017;28;20091;-70
2023/12/09 15:44:07;;;;;;;47.60;14.85;;;;;;;;;;5010921;28;20105;-69
2023/12/09 15:46:52;;;;;;;49.70;15.98;;;;;;;;;;4996420;28;20021;-69
2023/12/09 15:49:40;;;;;;;47.65;15.63;;;;;;;;;;5022009;28;20018;-69
2023/12/09 15:52:25;;;;;;;46.40;15.15;;;;;;;;;;5017828;28;20376;-70
2023/12/09 15:55:11;;;;;;;58.00;18.45;;;;;;;;;;5030271;28;20030;-69
2023/12/09 15:57:57;;;;;;;51.13;16.88;;;;;;;;;;5030145;28;20030;-70
2023/12/09 16:00:43;;;;;;;51.22;16.83;;;;;;;;;;5031994;28;20025;-70
2023/12/09 16:03:29;;;;;;;47.47;16.17;;;;;;;;;;5032936;28;20502;-70
2023/12/09 16:06:15;;;;;;;55.25;16.40;;;;;;;;;;5032183;28;20033;-69